sensor_id;sensor_type;location;lat;lon;timestamp;temperature;humidity
60965;DHT22;46834;51.100;6.886;2022-11-30T00:01:16;8.60;55.40
60965;DHT22;46834;51.100;6.886;2022-11-30T00:03:44;8.60;55.40
60965;DHT22;46834;51.100;6.886;2022-11-30T00:06:13;8.60;55.40
60965;DHT22;46834;51.100;6.886;2022-11-30T00:08:40;8.60;55.40
60965;DHT22;46834;51.100;6.886;2022-11-30T00:11:11;8.60;55.40
60965;DHT22;46834;51.100;6.886;2022-11-30T00:13:46;8.70;55.50
60965;DHT22;46834;51.100;6.886;2022-11-30T00:16:12;8.60;55.40
60965;DHT22;46834;51.100;6.886;2022-11-30T00:18:38;8.60;55.50
60965;DHT22;46834;51.100;6.886;2022-11-30T00:21:06;8.60;55.50
60965;DHT22;46834;51.100;6.886;2022-11-30T00:23:36;8.60;55.50
60965;DHT22;46834;51.100;6.886;2022-11-30T00:26:05;8.60;55.60
60965;DHT22;46834;51.100;6.886;2022-11-30T00:28:33;8.60;55.60
60965;DHT22;46834;51.100;6.886;2022-11-30T00:31:03;8.60;55.60
60965;DHT22;46834;51.100;6.886;2022-11-30T00:33:34;8.60;55.60
60965;DHT22;46834;51.100;6.886;2022-11-30T00:36:04;8.60;55.50
60965;DHT22;46834;51.100;6.886;2022-11-30T00:38:31;8.60;55.50
60965;DHT22;46834;51.100;6.886;2022-11-30T00:40:59;8.60;55.50
60965;DHT22;46834;51.100;6.886;2022-11-30T00:43:26;8.60;55.40
60965;DHT22;46834;51.100;6.886;2022-11-30T00:45:52;8.60;55.40
60965;DHT22;46834;51.100;6.886;2022-11-30T00:48:18;8.50;55.30
60965;DHT22;46834;51.100;6.886;2022-11-30T00:50:44;8.50;55.30
60965;DHT22;46834;51.100;6.886;2022-11-30T00:53:09;8.50;55.40
60965;DHT22;46834;51.100;6.886;2022-11-30T00:55:35;8.50;55.40
60965;DHT22;46834;51.100;6.886;2022-11-30T00:58:01;8.50;55.40
60965;DHT22;46834;51.100;6.886;2022-11-30T01:00:27;8.40;55.30
60965;DHT22;46834;51.100;6.886;2022-11-30T01:02:54;8.40;55.40
60965;DHT22;46834;51.100;6.886;2022-11-30T01:05:20;8.40;55.40
60965;DHT22;46834;51.100;6.886;2022-11-30T01:07:46;8.40;55.40
60965;DHT22;46834;51.100;6.886;2022-11-30T01:10:12;8.30;55.40
60965;DHT22;46834;51.100;6.886;2022-11-30T01:12:37;8.30;55.50
60965;DHT22;46834;51.100;6.886;2022-11-30T01:15:03;8.30;55.60
60965;DHT22;46834;51.100;6.886;2022-11-30T01:17:29;8.30;55.70
60965;DHT22;46834;51.100;6.886;2022-11-30T01:19:55;8.30;55.80
60965;DHT22;46834;51.100;6.886;2022-11-30T01:22:20;8.30;55.90
60965;DHT22;46834;51.100;6.886;2022-11-30T01:24:46;8.30;55.90
60965;DHT22;46834;51.100;6.886;2022-11-30T01:27:12;8.30;55.90
60965;DHT22;46834;51.100;6.886;2022-11-30T01:29:37;8.40;56.00
60965;DHT22;46834;51.100;6.886;2022-11-30T01:32:03;8.40;56.00
60965;DHT22;46834;51.100;6.886;2022-11-30T01:34:29;8.40;56.00
60965;DHT22;46834;51.100;6.886;2022-11-30T01:36:55;8.40;55.90
60965;DHT22;46834;51.100;6.886;2022-11-30T01:39:20;8.40;55.90
60965;DHT22;46834;51.100;6.886;2022-11-30T01:41:46;8.40;55.90
60965;DHT22;46834;51.100;6.886;2022-11-30T01:47:13;8.40;56.00
60965;DHT22;46834;51.100;6.886;2022-11-30T01:49:45;8.40;56.10
60965;DHT22;46834;51.100;6.886;2022-11-30T01:52:24;8.50;56.10
60965;DHT22;46834;51.100;6.886;2022-11-30T01:54:57;8.50;56.10
60965;DHT22;46834;51.100;6.886;2022-11-30T01:57:51;8.50;56.00
60965;DHT22;46834;51.100;6.886;2022-11-30T02:00:20;8.50;56.00
60965;DHT22;46834;51.100;6.886;2022-11-30T02:05:50;8.50;56.00
60965;DHT22;46834;51.100;6.886;2022-11-30T02:08:16;8.50;55.90
60965;DHT22;46834;51.100;6.886;2022-11-30T02:10:51;8.50;55.90
60965;DHT22;46834;51.100;6.886;2022-11-30T02:13:43;8.50;55.90
60965;DHT22;46834;51.100;6.886;2022-11-30T02:19:28;8.50;55.90
60965;DHT22;46834;51.100;6.886;2022-11-30T02:25:06;8.40;56.00
60965;DHT22;46834;51.100;6.886;2022-11-30T02:30:51;8.40;56.00
60965;DHT22;46834;51.100;6.886;2022-11-30T02:33:21;8.40;55.90
60965;DHT22;46834;51.100;6.886;2022-11-30T02:35:53;8.40;56.00
60965;DHT22;46834;51.100;6.886;2022-11-30T02:38:21;8.40;56.00
60965;DHT22;46834;51.100;6.886;2022-11-30T02:40:49;8.40;56.00
60965;DHT22;46834;51.100;6.886;2022-11-30T02:43:15;8.40;56.00
60965;DHT22;46834;51.100;6.886;2022-11-30T02:45:52;8.40;56.00
60965;DHT22;46834;51.100;6.886;2022-11-30T02:49:04;8.40;56.00
60965;DHT22;46834;51.100;6.886;2022-11-30T02:51:31;8.50;56.10
60965;DHT22;46834;51.100;6.886;2022-11-30T02:54:01;8.40;55.90
60965;DHT22;46834;51.100;6.886;2022-11-30T02:56:27;8.40;56.00
60965;DHT22;46834;51.100;6.886;2022-11-30T02:58:54;8.40;56.00
60965;DHT22;46834;51.100;6.886;2022-11-30T03:01:20;8.40;56.00
60965;DHT22;46834;51.100;6.886;2022-11-30T03:03:46;8.40;56.10
60965;DHT22;46834;51.100;6.886;2022-11-30T03:06:12;8.40;56.10
60965;DHT22;46834;51.100;6.886;2022-11-30T03:08:37;8.40;56.10
60965;DHT22;46834;51.100;6.886;2022-11-30T03:11:04;8.40;56.10
60965;DHT22;46834;51.100;6.886;2022-11-30T03:13:31;8.40;56.60
60965;DHT22;46834;51.100;6.886;2022-11-30T03:15:57;8.40;56.10
60965;DHT22;46834;51.100;6.886;2022-11-30T03:18:23;8.40;56.10
60965;DHT22;46834;51.100;6.886;2022-11-30T03:20:48;8.40;56.20
60965;DHT22;46834;51.100;6.886;2022-11-30T03:23:14;8.40;56.20
60965;DHT22;46834;51.100;6.886;2022-11-30T03:25:40;8.40;56.30
60965;DHT22;46834;51.100;6.886;2022-11-30T03:28:05;8.40;56.30
60965;DHT22;46834;51.100;6.886;2022-11-30T03:30:31;8.40;56.30
60965;DHT22;46834;51.100;6.886;2022-11-30T03:32:56;8.40;56.30
60965;DHT22;46834;51.100;6.886;2022-11-30T03:35:23;8.40;56.40
60965;DHT22;46834;51.100;6.886;2022-11-30T03:37:49;8.40;56.40
60965;DHT22;46834;51.100;6.886;2022-11-30T03:40:14;8.40;56.30
60965;DHT22;46834;51.100;6.886;2022-11-30T03:42:40;8.40;56.40
60965;DHT22;46834;51.100;6.886;2022-11-30T03:45:06;8.40;56.40
60965;DHT22;46834;51.100;6.886;2022-11-30T03:47:32;8.40;56.40
60965;DHT22;46834;51.100;6.886;2022-11-30T03:49:57;8.40;56.40
60965;DHT22;46834;51.100;6.886;2022-11-30T03:52:23;8.40;56.40
60965;DHT22;46834;51.100;6.886;2022-11-30T03:54:48;8.40;56.40
60965;DHT22;46834;51.100;6.886;2022-11-30T03:57:14;8.40;56.40
60965;DHT22;46834;51.100;6.886;2022-11-30T03:59:40;8.40;56.40
60965;DHT22;46834;51.100;6.886;2022-11-30T04:02:05;8.40;56.40
60965;DHT22;46834;51.100;6.886;2022-11-30T04:04:31;8.40;56.50
60965;DHT22;46834;51.100;6.886;2022-11-30T04:06:56;8.40;56.50
60965;DHT22;46834;51.100;6.886;2022-11-30T04:09:22;8.40;56.50
60965;DHT22;46834;51.100;6.886;2022-11-30T04:11:48;8.40;56.40
60965;DHT22;46834;51.100;6.886;2022-11-30T04:14:13;8.40;56.50
60965;DHT22;46834;51.100;6.886;2022-11-30T04:16:39;8.50;56.60
60965;DHT22;46834;51.100;6.886;2022-11-30T04:19:05;8.40;56.50
60965;DHT22;46834;51.100;6.886;2022-11-30T04:21:30;8.40;56.40
60965;DHT22;46834;51.100;6.886;2022-11-30T04:23:56;8.40;56.40
60965;DHT22;46834;51.100;6.886;2022-11-30T04:26:22;8.50;56.50
60965;DHT22;46834;51.100;6.886;2022-11-30T04:28:47;8.50;56.50
60965;DHT22;46834;51.100;6.886;2022-11-30T04:31:13;8.50;56.50
60965;DHT22;46834;51.100;6.886;2022-11-30T04:33:38;8.50;56.40
60965;DHT22;46834;51.100;6.886;2022-11-30T04:36:06;8.50;56.40
60965;DHT22;46834;51.100;6.886;2022-11-30T04:38:32;8.50;56.40
60965;DHT22;46834;51.100;6.886;2022-11-30T04:40:58;8.50;56.40
60965;DHT22;46834;51.100;6.886;2022-11-30T04:43:24;8.50;56.40
60965;DHT22;46834;51.100;6.886;2022-11-30T04:45:50;8.50;56.40
60965;DHT22;46834;51.100;6.886;2022-11-30T04:48:17;8.50;56.40
60965;DHT22;46834;51.100;6.886;2022-11-30T04:50:44;8.50;56.40
60965;DHT22;46834;51.100;6.886;2022-11-30T04:53:10;8.50;56.30
60965;DHT22;46834;51.100;6.886;2022-11-30T04:55:37;8.50;56.30
60965;DHT22;46834;51.100;6.886;2022-11-30T04:58:03;8.50;56.30
60965;DHT22;46834;51.100;6.886;2022-11-30T05:00:30;8.50;56.30
60965;DHT22;46834;51.100;6.886;2022-11-30T05:02:56;8.50;56.30
60965;DHT22;46834;51.100;6.886;2022-11-30T05:05:22;8.50;56.30
60965;DHT22;46834;51.100;6.886;2022-11-30T05:07:55;8.50;56.30
60965;DHT22;46834;51.100;6.886;2022-11-30T05:10:23;8.50;56.30
60965;DHT22;46834;51.100;6.886;2022-11-30T05:12:49;8.50;56.20
60965;DHT22;46834;51.100;6.886;2022-11-30T05:15:15;8.40;56.10
60965;DHT22;46834;51.100;6.886;2022-11-30T05:17:41;8.40;56.20
60965;DHT22;46834;51.100;6.886;2022-11-30T05:20:07;8.40;56.20
60965;DHT22;46834;51.100;6.886;2022-11-30T05:22:33;8.40;56.20
60965;DHT22;46834;51.100;6.886;2022-11-30T05:25:01;8.40;56.30
60965;DHT22;46834;51.100;6.886;2022-11-30T05:27:27;8.40;56.40
60965;DHT22;46834;51.100;6.886;2022-11-30T05:29:53;8.40;56.40
60965;DHT22;46834;51.100;6.886;2022-11-30T05:32:18;8.40;56.40
60965;DHT22;46834;51.100;6.886;2022-11-30T05:34:44;8.40;56.40
60965;DHT22;46834;51.100;6.886;2022-11-30T05:37:09;8.40;56.30
60965;DHT22;46834;51.100;6.886;2022-11-30T05:39:35;8.40;56.30
60965;DHT22;46834;51.100;6.886;2022-11-30T05:42:01;8.40;56.30
60965;DHT22;46834;51.100;6.886;2022-11-30T05:44:26;8.50;56.30
60965;DHT22;46834;51.100;6.886;2022-11-30T05:46:52;8.40;56.30
60965;DHT22;46834;51.100;6.886;2022-11-30T05:49:18;8.50;56.30
60965;DHT22;46834;51.100;6.886;2022-11-30T05:51:43;8.50;56.30
60965;DHT22;46834;51.100;6.886;2022-11-30T05:54:09;8.50;56.20
60965;DHT22;46834;51.100;6.886;2022-11-30T05:56:35;8.50;56.20
60965;DHT22;46834;51.100;6.886;2022-11-30T05:59:00;8.50;56.10
60965;DHT22;46834;51.100;6.886;2022-11-30T06:01:28;8.50;56.10
60965;DHT22;46834;51.100;6.886;2022-11-30T06:03:54;8.50;56.00
60965;DHT22;46834;51.100;6.886;2022-11-30T06:06:21;8.50;56.00
60965;DHT22;46834;51.100;6.886;2022-11-30T06:08:48;8.50;56.00
60965;DHT22;46834;51.100;6.886;2022-11-30T06:11:15;8.50;56.00
60965;DHT22;46834;51.100;6.886;2022-11-30T06:13:41;8.50;56.00
60965;DHT22;46834;51.100;6.886;2022-11-30T06:16:07;8.50;55.90
60965;DHT22;46834;51.100;6.886;2022-11-30T06:18:34;8.50;55.80
60965;DHT22;46834;51.100;6.886;2022-11-30T06:21:09;8.50;55.80
60965;DHT22;46834;51.100;6.886;2022-11-30T06:23:36;8.50;55.60
60965;DHT22;46834;51.100;6.886;2022-11-30T06:26:09;8.50;55.60
60965;DHT22;46834;51.100;6.886;2022-11-30T06:28:36;8.50;55.70
60965;DHT22;46834;51.100;6.886;2022-11-30T06:31:04;8.50;55.60
60965;DHT22;46834;51.100;6.886;2022-11-30T06:33:31;8.50;55.60
60965;DHT22;46834;51.100;6.886;2022-11-30T06:35:57;8.50;55.50
60965;DHT22;46834;51.100;6.886;2022-11-30T06:38:23;8.40;55.30
60965;DHT22;46834;51.100;6.886;2022-11-30T06:40:50;8.40;55.30
60965;DHT22;46834;51.100;6.886;2022-11-30T06:43:17;8.40;55.30
60965;DHT22;46834;51.100;6.886;2022-11-30T06:45:43;8.40;55.90
60965;DHT22;46834;51.100;6.886;2022-11-30T06:48:11;8.30;55.20
60965;DHT22;46834;51.100;6.886;2022-11-30T06:50:38;8.30;55.10
60965;DHT22;46834;51.100;6.886;2022-11-30T06:53:04;8.30;55.70
60965;DHT22;46834;51.100;6.886;2022-11-30T06:55:29;8.30;55.10
60965;DHT22;46834;51.100;6.886;2022-11-30T06:58:09;8.30;55.10
60965;DHT22;46834;51.100;6.886;2022-11-30T07:00:35;8.20;54.90
60965;DHT22;46834;51.100;6.886;2022-11-30T07:03:02;8.20;55.00
60965;DHT22;46834;51.100;6.886;2022-11-30T07:05:37;8.20;55.10
60965;DHT22;46834;51.100;6.886;2022-11-30T07:08:05;8.10;55.00
60965;DHT22;46834;51.100;6.886;2022-11-30T07:10:31;8.10;55.00
60965;DHT22;46834;51.100;6.886;2022-11-30T07:12:56;8.10;55.00
60965;DHT22;46834;51.100;6.886;2022-11-30T07:15:22;8.10;55.00
60965;DHT22;46834;51.100;6.886;2022-11-30T07:17:48;8.10;55.10
60965;DHT22;46834;51.100;6.886;2022-11-30T07:20:14;8.00;55.00
60965;DHT22;46834;51.100;6.886;2022-11-30T07:22:39;8.10;55.10
60965;DHT22;46834;51.100;6.886;2022-11-30T07:25:05;8.00;55.10
60965;DHT22;46834;51.100;6.886;2022-11-30T07:27:50;8.00;55.10
60965;DHT22;46834;51.100;6.886;2022-11-30T07:30:16;8.10;55.30
60965;DHT22;46834;51.100;6.886;2022-11-30T07:32:42;8.00;55.20
60965;DHT22;46834;51.100;6.886;2022-11-30T07:35:07;8.10;55.30
60965;DHT22;46834;51.100;6.886;2022-11-30T07:37:33;8.10;55.20
60965;DHT22;46834;51.100;6.886;2022-11-30T07:39:59;8.10;55.20
60965;DHT22;46834;51.100;6.886;2022-11-30T07:42:24;8.10;55.20
60965;DHT22;46834;51.100;6.886;2022-11-30T07:44:50;8.10;55.10
60965;DHT22;46834;51.100;6.886;2022-11-30T07:47:16;8.10;55.10
60965;DHT22;46834;51.100;6.886;2022-11-30T07:49:42;8.20;55.20
60965;DHT22;46834;51.100;6.886;2022-11-30T07:52:07;8.10;55.10
60965;DHT22;46834;51.100;6.886;2022-11-30T07:54:33;8.20;55.20
60965;DHT22;46834;51.100;6.886;2022-11-30T07:56:59;8.20;55.10
60965;DHT22;46834;51.100;6.886;2022-11-30T07:59:25;8.20;55.10
60965;DHT22;46834;51.100;6.886;2022-11-30T08:01:50;8.20;55.00
60965;DHT22;46834;51.100;6.886;2022-11-30T08:04:16;8.20;55.00
60965;DHT22;46834;51.100;6.886;2022-11-30T08:06:42;8.20;55.00
60965;DHT22;46834;51.100;6.886;2022-11-30T08:09:10;8.20;55.00
60965;DHT22;46834;51.100;6.886;2022-11-30T08:11:37;8.20;55.00
60965;DHT22;46834;51.100;6.886;2022-11-30T08:14:03;8.20;54.90
60965;DHT22;46834;51.100;6.886;2022-11-30T08:16:34;8.20;54.90
60965;DHT22;46834;51.100;6.886;2022-11-30T08:19:02;8.20;54.90
60965;DHT22;46834;51.100;6.886;2022-11-30T08:21:28;8.20;55.00
60965;DHT22;46834;51.100;6.886;2022-11-30T08:23:55;8.20;55.00
60965;DHT22;46834;51.100;6.886;2022-11-30T08:26:27;8.20;55.00
60965;DHT22;46834;51.100;6.886;2022-11-30T08:28:55;8.20;55.00
60965;DHT22;46834;51.100;6.886;2022-11-30T08:31:25;8.20;55.00
60965;DHT22;46834;51.100;6.886;2022-11-30T08:33:58;8.20;54.90
60965;DHT22;46834;51.100;6.886;2022-11-30T08:36:26;8.20;54.90
60965;DHT22;46834;51.100;6.886;2022-11-30T08:38:56;8.20;55.00
60965;DHT22;46834;51.100;6.886;2022-11-30T08:41:23;8.30;55.00
60965;DHT22;46834;51.100;6.886;2022-11-30T08:43:49;8.20;55.00
60965;DHT22;46834;51.100;6.886;2022-11-30T08:46:19;8.20;55.00
60965;DHT22;46834;51.100;6.886;2022-11-30T08:48:46;8.30;55.10
60965;DHT22;46834;51.100;6.886;2022-11-30T08:51:14;8.20;55.00
60965;DHT22;46834;51.100;6.886;2022-11-30T08:53:42;8.30;55.10
60965;DHT22;46834;51.100;6.886;2022-11-30T08:56:11;8.20;55.00
60965;DHT22;46834;51.100;6.886;2022-11-30T08:58:39;8.30;55.10
60965;DHT22;46834;51.100;6.886;2022-11-30T09:01:11;8.30;55.10
60965;DHT22;46834;51.100;6.886;2022-11-30T09:03:40;8.30;55.10
60965;DHT22;46834;51.100;6.886;2022-11-30T09:08:40;8.30;55.10
60965;DHT22;46834;51.100;6.886;2022-11-30T09:13:45;8.30;55.00
60965;DHT22;46834;51.100;6.886;2022-11-30T09:16:12;8.30;55.10
60965;DHT22;46834;51.100;6.886;2022-11-30T09:18:39;8.30;55.10
60965;DHT22;46834;51.100;6.886;2022-11-30T09:21:09;8.30;55.10
60965;DHT22;46834;51.100;6.886;2022-11-30T09:23:38;8.30;55.00
60965;DHT22;46834;51.100;6.886;2022-11-30T09:26:07;8.30;55.00
60965;DHT22;46834;51.100;6.886;2022-11-30T09:28:34;8.30;55.00
60965;DHT22;46834;51.100;6.886;2022-11-30T09:33:32;8.30;55.00
60965;DHT22;46834;51.100;6.886;2022-11-30T09:36:01;8.30;55.00
60965;DHT22;46834;51.100;6.886;2022-11-30T09:38:31;8.30;55.00
60965;DHT22;46834;51.100;6.886;2022-11-30T09:40:59;8.30;54.90
60965;DHT22;46834;51.100;6.886;2022-11-30T09:43:49;8.30;54.90
60965;DHT22;46834;51.100;6.886;2022-11-30T09:46:40;8.30;54.80
60965;DHT22;46834;51.100;6.886;2022-11-30T09:49:15;8.30;54.90
60965;DHT22;46834;51.100;6.886;2022-11-30T09:51:44;8.30;55.00
60965;DHT22;46834;51.100;6.886;2022-11-30T09:54:15;8.30;55.00
60965;DHT22;46834;51.100;6.886;2022-11-30T09:56:45;8.30;55.00
60965;DHT22;46834;51.100;6.886;2022-11-30T09:59:21;8.30;55.00
60965;DHT22;46834;51.100;6.886;2022-11-30T10:01:54;8.30;55.00
60965;DHT22;46834;51.100;6.886;2022-11-30T10:04:24;8.30;54.90
60965;DHT22;46834;51.100;6.886;2022-11-30T10:10:18;8.30;54.80
60965;DHT22;46834;51.100;6.886;2022-11-30T10:13:15;8.30;54.80
60965;DHT22;46834;51.100;6.886;2022-11-30T10:19:42;8.30;54.80
60965;DHT22;46834;51.100;6.886;2022-11-30T10:22:34;8.30;54.80
60965;DHT22;46834;51.100;6.886;2022-11-30T10:25:20;8.30;54.90
60965;DHT22;46834;51.100;6.886;2022-11-30T10:27:58;8.30;55.00
60965;DHT22;46834;51.100;6.886;2022-11-30T10:30:33;8.30;55.00
60965;DHT22;46834;51.100;6.886;2022-11-30T10:33:11;8.30;55.10
60965;DHT22;46834;51.100;6.886;2022-11-30T10:35:53;8.30;55.10
60965;DHT22;46834;51.100;6.886;2022-11-30T10:38:59;8.30;55.10
60965;DHT22;46834;51.100;6.886;2022-11-30T10:41:32;8.30;55.00
60965;DHT22;46834;51.100;6.886;2022-11-30T10:44:10;8.30;55.00
60965;DHT22;46834;51.100;6.886;2022-11-30T10:46:44;8.40;55.00
60965;DHT22;46834;51.100;6.886;2022-11-30T10:49:18;8.40;55.00
60965;DHT22;46834;51.100;6.886;2022-11-30T10:51:48;8.40;55.00
60965;DHT22;46834;51.100;6.886;2022-11-30T10:54:21;8.40;55.00
60965;DHT22;46834;51.100;6.886;2022-11-30T10:56:48;8.40;54.90
60965;DHT22;46834;51.100;6.886;2022-11-30T10:59:46;8.40;55.00
60965;DHT22;46834;51.100;6.886;2022-11-30T11:05:25;8.40;54.90
60965;DHT22;46834;51.100;6.886;2022-11-30T11:07:58;8.40;55.00
60965;DHT22;46834;51.100;6.886;2022-11-30T11:10:45;8.40;55.00
60965;DHT22;46834;51.100;6.886;2022-11-30T11:13:34;8.40;54.90
60965;DHT22;46834;51.100;6.886;2022-11-30T11:16:10;8.40;54.90
60965;DHT22;46834;51.100;6.886;2022-11-30T11:18:55;8.40;54.90
60965;DHT22;46834;51.100;6.886;2022-11-30T11:21:22;8.40;54.90
60965;DHT22;46834;51.100;6.886;2022-11-30T11:23:56;8.40;55.00
60965;DHT22;46834;51.100;6.886;2022-11-30T11:26:27;8.40;54.90
60965;DHT22;46834;51.100;6.886;2022-11-30T11:28:56;8.40;55.00
60965;DHT22;46834;51.100;6.886;2022-11-30T11:31:35;8.40;55.00
60965;DHT22;46834;51.100;6.886;2022-11-30T11:34:22;8.40;54.90
60965;DHT22;46834;51.100;6.886;2022-11-30T11:37:04;8.40;54.90
60965;DHT22;46834;51.100;6.886;2022-11-30T11:39:31;8.50;55.00
60965;DHT22;46834;51.100;6.886;2022-11-30T11:41:57;8.50;55.00
60965;DHT22;46834;51.100;6.886;2022-11-30T11:44:25;8.40;54.90
60965;DHT22;46834;51.100;6.886;2022-11-30T11:47:00;8.50;55.00
60965;DHT22;46834;51.100;6.886;2022-11-30T11:49:31;8.50;55.00
60965;DHT22;46834;51.100;6.886;2022-11-30T11:52:10;8.50;55.00
60965;DHT22;46834;51.100;6.886;2022-11-30T11:54:49;8.40;54.90
60965;DHT22;46834;51.100;6.886;2022-11-30T11:57:32;8.50;55.00
60965;DHT22;46834;51.100;6.886;2022-11-30T12:00:14;8.50;55.00
60965;DHT22;46834;51.100;6.886;2022-11-30T12:02:58;8.50;54.90
60965;DHT22;46834;51.100;6.886;2022-11-30T12:05:44;8.50;54.90
60965;DHT22;46834;51.100;6.886;2022-11-30T12:11:03;8.50;54.80
60965;DHT22;46834;51.100;6.886;2022-11-30T12:13:37;8.50;54.90
60965;DHT22;46834;51.100;6.886;2022-11-30T12:24:54;8.50;54.80
60965;DHT22;46834;51.100;6.886;2022-11-30T12:27:46;8.50;54.80
60965;DHT22;46834;51.100;6.886;2022-11-30T12:30:47;8.50;54.70
60965;DHT22;46834;51.100;6.886;2022-11-30T12:39:42;8.50;54.70
60965;DHT22;46834;51.100;6.886;2022-11-30T12:42:35;8.50;54.60
60965;DHT22;46834;51.100;6.886;2022-11-30T12:48:21;8.50;54.70
60965;DHT22;46834;51.100;6.886;2022-11-30T12:51:08;8.50;54.70
60965;DHT22;46834;51.100;6.886;2022-11-30T13:00:00;8.60;54.80
60965;DHT22;46834;51.100;6.886;2022-11-30T13:05:56;8.60;54.80
60965;DHT22;46834;51.100;6.886;2022-11-30T13:11:30;8.60;54.90
60965;DHT22;46834;51.100;6.886;2022-11-30T13:13:59;8.70;54.90
60965;DHT22;46834;51.100;6.886;2022-11-30T13:16:26;8.70;55.00
60965;DHT22;46834;51.100;6.886;2022-11-30T13:21:58;8.70;54.90
60965;DHT22;46834;51.100;6.886;2022-11-30T13:24:38;8.80;54.90
60965;DHT22;46834;51.100;6.886;2022-11-30T13:27:28;8.80;54.80
60965;DHT22;46834;51.100;6.886;2022-11-30T13:30:47;8.80;54.90
60965;DHT22;46834;51.100;6.886;2022-11-30T13:33:58;8.80;55.20
60965;DHT22;46834;51.100;6.886;2022-11-30T13:36:43;8.80;54.60
60965;DHT22;46834;51.100;6.886;2022-11-30T13:41:47;8.80;54.70
60965;DHT22;46834;51.100;6.886;2022-11-30T13:46:50;8.80;54.60
60965;DHT22;46834;51.100;6.886;2022-11-30T13:49:20;8.80;54.70
60965;DHT22;46834;51.100;6.886;2022-11-30T13:51:49;8.80;54.70
60965;DHT22;46834;51.100;6.886;2022-11-30T13:54:38;8.80;54.70
60965;DHT22;46834;51.100;6.886;2022-11-30T13:58:01;8.80;54.50
60965;DHT22;46834;51.100;6.886;2022-11-30T14:02:57;8.80;54.50
60965;DHT22;46834;51.100;6.886;2022-11-30T14:05:41;8.80;54.60
60965;DHT22;46834;51.100;6.886;2022-11-30T14:10:53;8.80;54.60
60965;DHT22;46834;51.100;6.886;2022-11-30T14:13:39;8.80;54.60
60965;DHT22;46834;51.100;6.886;2022-11-30T14:16:22;8.80;54.70
60965;DHT22;46834;51.100;6.886;2022-11-30T14:18:51;8.80;54.60
60965;DHT22;46834;51.100;6.886;2022-11-30T14:21:30;8.80;54.70
60965;DHT22;46834;51.100;6.886;2022-11-30T14:24:05;8.80;54.70
60965;DHT22;46834;51.100;6.886;2022-11-30T14:26:46;8.80;54.70
60965;DHT22;46834;51.100;6.886;2022-11-30T14:29:18;8.80;54.70
60965;DHT22;46834;51.100;6.886;2022-11-30T14:31:59;8.80;54.70
60965;DHT22;46834;51.100;6.886;2022-11-30T14:34:37;8.80;54.70
60965;DHT22;46834;51.100;6.886;2022-11-30T14:37:20;8.80;54.70
60965;DHT22;46834;51.100;6.886;2022-11-30T14:39:49;8.80;54.60
60965;DHT22;46834;51.100;6.886;2022-11-30T14:42:20;8.80;54.70
60965;DHT22;46834;51.100;6.886;2022-11-30T14:44:54;8.80;54.70
60965;DHT22;46834;51.100;6.886;2022-11-30T14:47:25;8.80;54.80
60965;DHT22;46834;51.100;6.886;2022-11-30T14:49:59;8.80;55.40
60965;DHT22;46834;51.100;6.886;2022-11-30T14:55:58;8.80;54.60
60965;DHT22;46834;51.100;6.886;2022-11-30T14:58:54;8.80;54.60
60965;DHT22;46834;51.100;6.886;2022-11-30T15:01:28;8.80;54.60
60965;DHT22;46834;51.100;6.886;2022-11-30T15:04:08;8.80;54.70
60965;DHT22;46834;51.100;6.886;2022-11-30T15:06:38;8.80;54.70
60965;DHT22;46834;51.100;6.886;2022-11-30T15:09:13;8.80;54.70
60965;DHT22;46834;51.100;6.886;2022-11-30T15:11:45;8.80;55.30
60965;DHT22;46834;51.100;6.886;2022-11-30T15:14:13;8.80;54.80
60965;DHT22;46834;51.100;6.886;2022-11-30T15:16:50;8.80;54.80
60965;DHT22;46834;51.100;6.886;2022-11-30T15:19:22;8.80;54.80
60965;DHT22;46834;51.100;6.886;2022-11-30T15:21:50;8.80;54.90
60965;DHT22;46834;51.100;6.886;2022-11-30T15:24:16;8.80;54.80
60965;DHT22;46834;51.100;6.886;2022-11-30T15:26:51;8.80;54.80
60965;DHT22;46834;51.100;6.886;2022-11-30T15:29:36;8.80;54.80
60965;DHT22;46834;51.100;6.886;2022-11-30T15:32:14;8.80;54.80
60965;DHT22;46834;51.100;6.886;2022-11-30T15:37:16;8.70;54.80
60965;DHT22;46834;51.100;6.886;2022-11-30T15:39:52;8.70;54.80
60965;DHT22;46834;51.100;6.886;2022-11-30T15:42:27;8.70;54.70
60965;DHT22;46834;51.100;6.886;2022-11-30T15:45:49;8.70;54.70
60965;DHT22;46834;51.100;6.886;2022-11-30T15:48:27;8.70;54.70
60965;DHT22;46834;51.100;6.886;2022-11-30T15:50:58;8.70;54.60
60965;DHT22;46834;51.100;6.886;2022-11-30T15:53:33;8.70;54.70
60965;DHT22;46834;51.100;6.886;2022-11-30T15:56:25;8.70;54.70
60965;DHT22;46834;51.100;6.886;2022-11-30T16:01:55;8.70;54.60
60965;DHT22;46834;51.100;6.886;2022-11-30T16:07:23;8.70;54.60
60965;DHT22;46834;51.100;6.886;2022-11-30T16:09:51;8.70;54.60
60965;DHT22;46834;51.100;6.886;2022-11-30T16:12:30;8.70;54.70
60965;DHT22;46834;51.100;6.886;2022-11-30T16:14:56;8.70;54.70
60965;DHT22;46834;51.100;6.886;2022-11-30T16:17:22;8.70;54.70
60965;DHT22;46834;51.100;6.886;2022-11-30T16:19:48;8.60;54.60
60965;DHT22;46834;51.100;6.886;2022-11-30T16:22:14;8.60;54.60
60965;DHT22;46834;51.100;6.886;2022-11-30T16:24:41;8.60;54.60
60965;DHT22;46834;51.100;6.886;2022-11-30T16:27:18;8.60;54.70
60965;DHT22;46834;51.100;6.886;2022-11-30T16:29:45;8.60;54.60
60965;DHT22;46834;51.100;6.886;2022-11-30T16:32:12;8.70;54.80
60965;DHT22;46834;51.100;6.886;2022-11-30T16:34:39;8.60;54.70
60965;DHT22;46834;51.100;6.886;2022-11-30T16:37:09;8.60;54.70
60965;DHT22;46834;51.100;6.886;2022-11-30T16:39:35;8.60;54.70
60965;DHT22;46834;51.100;6.886;2022-11-30T16:42:01;8.60;54.70
60965;DHT22;46834;51.100;6.886;2022-11-30T16:44:27;8.60;54.70
60965;DHT22;46834;51.100;6.886;2022-11-30T16:46:52;8.70;54.80
60965;DHT22;46834;51.100;6.886;2022-11-30T16:49:19;8.60;54.70
60965;DHT22;46834;51.100;6.886;2022-11-30T16:51:45;8.60;54.70
60965;DHT22;46834;51.100;6.886;2022-11-30T16:54:13;8.60;54.70
60965;DHT22;46834;51.100;6.886;2022-11-30T16:56:43;8.60;54.70
60965;DHT22;46834;51.100;6.886;2022-11-30T16:59:09;8.60;54.60
60965;DHT22;46834;51.100;6.886;2022-11-30T17:01:43;8.60;54.60
60965;DHT22;46834;51.100;6.886;2022-11-30T17:04:16;8.60;54.60
60965;DHT22;46834;51.100;6.886;2022-11-30T17:06:44;8.60;54.70
60965;DHT22;46834;51.100;6.886;2022-11-30T17:09:12;8.60;54.60
60965;DHT22;46834;51.100;6.886;2022-11-30T17:11:40;8.60;54.60
60965;DHT22;46834;51.100;6.886;2022-11-30T17:14:06;8.60;54.60
60965;DHT22;46834;51.100;6.886;2022-11-30T17:16:33;8.60;54.60
60965;DHT22;46834;51.100;6.886;2022-11-30T17:18:59;8.70;54.70
60965;DHT22;46834;51.100;6.886;2022-11-30T17:21:33;8.70;54.70
60965;DHT22;46834;51.100;6.886;2022-11-30T17:24:00;8.70;54.60
60965;DHT22;46834;51.100;6.886;2022-11-30T17:26:27;8.60;54.50
60965;DHT22;46834;51.100;6.886;2022-11-30T17:28:53;8.60;54.50
60965;DHT22;46834;51.100;6.886;2022-11-30T17:31:19;8.60;54.50
60965;DHT22;46834;51.100;6.886;2022-11-30T17:33:45;8.60;54.40
60965;DHT22;46834;51.100;6.886;2022-11-30T17:36:13;8.60;54.40
60965;DHT22;46834;51.100;6.886;2022-11-30T17:38:40;8.70;54.50
60965;DHT22;46834;51.100;6.886;2022-11-30T17:41:13;8.60;54.40